sensor_id;sensor_type;location;lat;lon;timestamp;P1;durP1;ratioP1;P2;durP2;ratioP2
16928;SDS011;8581;47.334;11.190;2024-03-08T00:00:56;35.83;;;27.47;;
16928;SDS011;8581;47.334;11.190;2024-03-08T00:03:28;39.77;;;27.90;;
16928;SDS011;8581;47.334;11.190;2024-03-08T00:06:00;35.93;;;27.13;;
16928;SDS011;8581;47.334;11.190;2024-03-08T00:08:32;41.10;;;29.53;;
16928;SDS011;8581;47.334;11.190;2024-03-08T00:11:04;39.13;;;29.13;;
16928;SDS011;8581;47.334;11.190;2024-03-08T00:13:37;38.97;;;28.00;;
16928;SDS011;8581;47.334;11.190;2024-03-08T00:16:09;35.67;;;27.47;;
16928;SDS011;8581;47.334;11.190;2024-03-08T00:18:41;38.33;;;27.43;;
16928;SDS011;8581;47.334;11.190;2024-03-08T00:21:13;38.80;;;28.00;;
16928;SDS011;8581;47.334;11.190;2024-03-08T00:23:45;38.30;;;27.43;;
16928;SDS011;8581;47.334;11.190;2024-03-08T00:26:17;40.27;;;27.70;;
16928;SDS011;8581;47.334;11.190;2024-03-08T00:28:50;39.93;;;28.90;;
16928;SDS011;8581;47.334;11.190;2024-03-08T00:31:22;44.73;;;29.77;;
16928;SDS011;8581;47.334;11.190;2024-03-08T00:33:54;41.97;;;29.17;;
16928;SDS011;8581;47.334;11.190;2024-03-08T00:36:26;35.73;;;25.83;;
16928;SDS011;8581;47.334;11.190;2024-03-08T00:38:58;39.50;;;27.63;;
16928;SDS011;8581;47.334;11.190;2024-03-08T00:41:30;38.87;;;27.17;;
16928;SDS011;8581;47.334;11.190;2024-03-08T00:44:03;42.73;;;28.57;;
16928;SDS011;8581;47.334;11.190;2024-03-08T00:46:35;43.37;;;29.10;;
16928;SDS011;8581;47.334;11.190;2024-03-08T00:49:07;41.60;;;29.10;;
16928;SDS011;8581;47.334;11.190;2024-03-08T00:51:39;41.90;;;29.17;;
16928;SDS011;8581;47.334;11.190;2024-03-08T00:54:12;45.73;;;29.87;;
16928;SDS011;8581;47.334;11.190;2024-03-08T00:56:43;43.03;;;28.30;;
16928;SDS011;8581;47.334;11.190;2024-03-08T00:59:15;47.93;;;30.23;;
16928;SDS011;8581;47.334;11.190;2024-03-08T01:01:47;43.67;;;29.10;;
16928;SDS011;8581;47.334;11.190;2024-03-08T01:04:19;48.90;;;29.80;;
16928;SDS011;8581;47.334;11.190;2024-03-08T01:06:51;54.63;;;32.97;;
16928;SDS011;8581;47.334;11.190;2024-03-08T01:09:24;55.90;;;33.90;;
16928;SDS011;8581;47.334;11.190;2024-03-08T01:11:56;55.67;;;33.93;;
16928;SDS011;8581;47.334;11.190;2024-03-08T01:14:28;58.93;;;35.40;;
16928;SDS011;8581;47.334;11.190;2024-03-08T01:16:59;52.13;;;31.77;;
16928;SDS011;8581;47.334;11.190;2024-03-08T01:19:32;53.60;;;32.90;;
16928;SDS011;8581;47.334;11.190;2024-03-08T01:22:04;43.33;;;28.77;;
16928;SDS011;8581;47.334;11.190;2024-03-08T01:24:36;42.77;;;28.77;;
16928;SDS011;8581;47.334;11.190;2024-03-08T01:27:08;45.57;;;29.03;;
16928;SDS011;8581;47.334;11.190;2024-03-08T01:29:40;39.90;;;26.43;;
16928;SDS011;8581;47.334;11.190;2024-03-08T01:32:12;42.90;;;26.37;;
16928;SDS011;8581;47.334;11.190;2024-03-08T01:34:43;41.57;;;26.60;;
16928;SDS011;8581;47.334;11.190;2024-03-08T01:37:16;42.10;;;25.80;;
16928;SDS011;8581;47.334;11.190;2024-03-08T01:39:47;35.13;;;24.30;;
16928;SDS011;8581;47.334;11.190;2024-03-08T01:42:19;34.07;;;24.43;;
16928;SDS011;8581;47.334;11.190;2024-03-08T01:44:51;32.47;;;22.80;;
16928;SDS011;8581;47.334;11.190;2024-03-08T01:47:23;36.87;;;23.97;;
16928;SDS011;8581;47.334;11.190;2024-03-08T01:49:55;32.93;;;23.00;;
16928;SDS011;8581;47.334;11.190;2024-03-08T01:52:28;33.03;;;22.30;;
16928;SDS011;8581;47.334;11.190;2024-03-08T01:55:00;30.00;;;21.67;;
16928;SDS011;8581;47.334;11.190;2024-03-08T01:57:32;32.83;;;22.67;;
16928;SDS011;8581;47.334;11.190;2024-03-08T02:00:05;30.47;;;21.70;;
16928;SDS011;8581;47.334;11.190;2024-03-08T02:02:38;35.17;;;22.77;;
16928;SDS011;8581;47.334;11.190;2024-03-08T02:05:11;32.70;;;22.10;;
16928;SDS011;8581;47.334;11.190;2024-03-08T02:07:43;33.23;;;22.50;;
16928;SDS011;8581;47.334;11.190;2024-03-08T02:10:15;29.10;;;19.83;;
16928;SDS011;8581;47.334;11.190;2024-03-08T02:12:47;28.63;;;20.57;;
16928;SDS011;8581;47.334;11.190;2024-03-08T02:15:19;28.70;;;19.37;;
16928;SDS011;8581;47.334;11.190;2024-03-08T02:17:52;29.47;;;20.40;;
16928;SDS011;8581;47.334;11.190;2024-03-08T02:20:24;25.77;;;18.07;;
16928;SDS011;8581;47.334;11.190;2024-03-08T02:22:56;25.47;;;16.30;;
16928;SDS011;8581;47.334;11.190;2024-03-08T02:25:29;16.80;;;13.50;;
16928;SDS011;8581;47.334;11.190;2024-03-08T02:28:01;19.73;;;12.77;;
16928;SDS011;8581;47.334;11.190;2024-03-08T02:30:33;19.17;;;14.23;;
16928;SDS011;8581;47.334;11.190;2024-03-08T02:33:06;23.97;;;16.07;;
16928;SDS011;8581;47.334;11.190;2024-03-08T02:35:38;22.53;;;16.87;;
16928;SDS011;8581;47.334;11.190;2024-03-08T02:38:10;24.43;;;16.63;;
16928;SDS011;8581;47.334;11.190;2024-03-08T02:40:42;20.73;;;15.83;;
16928;SDS011;8581;47.334;11.190;2024-03-08T02:43:14;22.90;;;16.03;;
16928;SDS011;8581;47.334;11.190;2024-03-08T02:45:46;21.27;;;15.50;;
16928;SDS011;8581;47.334;11.190;2024-03-08T02:48:18;19.37;;;15.37;;
16928;SDS011;8581;47.334;11.190;2024-03-08T02:50:50;21.93;;;16.03;;
16928;SDS011;8581;47.334;11.190;2024-03-08T02:53:22;25.33;;;17.27;;
16928;SDS011;8581;47.334;11.190;2024-03-08T02:55:55;30.60;;;18.63;;
16928;SDS011;8581;47.334;11.190;2024-03-08T02:58:27;29.93;;;19.77;;
16928;SDS011;8581;47.334;11.190;2024-03-08T03:00:59;30.47;;;19.63;;
16928;SDS011;8581;47.334;11.190;2024-03-08T03:03:31;27.93;;;19.20;;
16928;SDS011;8581;47.334;11.190;2024-03-08T03:06:03;24.03;;;17.93;;
16928;SDS011;8581;47.334;11.190;2024-03-08T03:08:36;22.20;;;16.07;;
16928;SDS011;8581;47.334;11.190;2024-03-08T03:11:08;23.17;;;16.77;;
16928;SDS011;8581;47.334;11.190;2024-03-08T03:13:40;24.03;;;16.00;;
16928;SDS011;8581;47.334;11.190;2024-03-08T03:16:12;20.90;;;15.03;;
16928;SDS011;8581;47.334;11.190;2024-03-08T03:18:44;22.90;;;15.67;;
16928;SDS011;8581;47.334;11.190;2024-03-08T03:21:16;26.00;;;16.83;;
16928;SDS011;8581;47.334;11.190;2024-03-08T03:23:48;23.13;;;16.53;;
16928;SDS011;8581;47.334;11.190;2024-03-08T03:26:20;22.20;;;15.77;;
16928;SDS011;8581;47.334;11.190;2024-03-08T03:28:52;22.53;;;15.33;;
16928;SDS011;8581;47.334;11.190;2024-03-08T03:31:24;30.47;;;19.97;;
16928;SDS011;8581;47.334;11.190;2024-03-08T03:33:56;35.40;;;22.93;;
16928;SDS011;8581;47.334;11.190;2024-03-08T03:36:30;32.77;;;21.90;;
16928;SDS011;8581;47.334;11.190;2024-03-08T03:39:02;38.23;;;25.13;;
16928;SDS011;8581;47.334;11.190;2024-03-08T03:41:36;33.47;;;20.73;;
16928;SDS011;8581;47.334;11.190;2024-03-08T03:44:08;28.10;;;18.60;;
16928;SDS011;8581;47.334;11.190;2024-03-08T03:46:42;25.33;;;16.70;;
16928;SDS011;8581;47.334;11.190;2024-03-08T03:49:17;27.40;;;17.93;;
16928;SDS011;8581;47.334;11.190;2024-03-08T03:51:49;23.57;;;15.93;;
16928;SDS011;8581;47.334;11.190;2024-03-08T03:54:21;23.37;;;16.47;;
16928;SDS011;8581;47.334;11.190;2024-03-08T03:56:53;22.20;;;15.43;;
16928;SDS011;8581;47.334;11.190;2024-03-08T03:59:25;20.73;;;15.43;;
16928;SDS011;8581;47.334;11.190;2024-03-08T04:01:57;25.20;;;14.13;;
16928;SDS011;8581;47.334;11.190;2024-03-08T04:04:29;20.97;;;15.10;;
16928;SDS011;8581;47.334;11.190;2024-03-08T04:07:01;22.87;;;15.07;;
16928;SDS011;8581;47.334;11.190;2024-03-08T04:09:34;20.97;;;13.67;;
16928;SDS011;8581;47.334;11.190;2024-03-08T04:12:05;18.70;;;13.13;;
16928;SDS011;8581;47.334;11.190;2024-03-08T04:14:39;19.17;;;13.33;;
16928;SDS011;8581;47.334;11.190;2024-03-08T04:17:10;18.17;;;12.30;;
16928;SDS011;8581;47.334;11.190;2024-03-08T04:19:43;20.97;;;13.83;;
16928;SDS011;8581;47.334;11.190;2024-03-08T04:22:15;18.70;;;12.23;;
16928;SDS011;8581;47.334;11.190;2024-03-08T04:24:47;19.53;;;13.10;;
16928;SDS011;8581;47.334;11.190;2024-03-08T04:27:19;20.03;;;14.00;;
16928;SDS011;8581;47.334;11.190;2024-03-08T04:29:51;30.50;;;18.37;;
16928;SDS011;8581;47.334;11.190;2024-03-08T04:32:24;22.93;;;15.40;;
16928;SDS011;8581;47.334;11.190;2024-03-08T04:34:56;25.23;;;15.37;;
16928;SDS011;8581;47.334;11.190;2024-03-08T04:37:28;24.00;;;15.93;;
16928;SDS011;8581;47.334;11.190;2024-03-08T04:40:00;25.10;;;16.00;;
16928;SDS011;8581;47.334;11.190;2024-03-08T04:42:32;19.00;;;11.93;;
16928;SDS011;8581;47.334;11.190;2024-03-08T04:45:05;17.17;;;11.33;;
16928;SDS011;8581;47.334;11.190;2024-03-08T04:47:40;15.37;;;9.60;;
16928;SDS011;8581;47.334;11.190;2024-03-08T04:50:12;13.53;;;9.50;;
16928;SDS011;8581;47.334;11.190;2024-03-08T04:52:45;15.13;;;10.10;;
16928;SDS011;8581;47.334;11.190;2024-03-08T04:55:18;17.03;;;11.87;;
16928;SDS011;8581;47.334;11.190;2024-03-08T04:57:49;15.77;;;10.33;;
16928;SDS011;8581;47.334;11.190;2024-03-08T05:00:21;17.10;;;10.77;;
16928;SDS011;8581;47.334;11.190;2024-03-08T05:02:54;12.77;;;8.87;;
16928;SDS011;8581;47.334;11.190;2024-03-08T05:05:26;14.83;;;8.90;;
16928;SDS011;8581;47.334;11.190;2024-03-08T05:07:58;14.27;;;7.93;;
16928;SDS011;8581;47.334;11.190;2024-03-08T05:10:30;11.70;;;7.97;;
16928;SDS011;8581;47.334;11.190;2024-03-08T05:13:02;10.07;;;7.33;;
16928;SDS011;8581;47.334;11.190;2024-03-08T05:15:35;12.93;;;8.33;;
16928;SDS011;8581;47.334;11.190;2024-03-08T05:18:08;12.53;;;8.20;;
16928;SDS011;8581;47.334;11.190;2024-03-08T05:20:40;13.83;;;8.13;;
16928;SDS011;8581;47.334;11.190;2024-03-08T05:23:11;10.47;;;6.80;;
16928;SDS011;8581;47.334;11.190;2024-03-08T05:25:44;10.83;;;7.50;;
16928;SDS011;8581;47.334;11.190;2024-03-08T05:28:16;10.90;;;6.83;;
16928;SDS011;8581;47.334;11.190;2024-03-08T05:30:48;11.50;;;7.40;;
16928;SDS011;8581;47.334;11.190;2024-03-08T05:33:21;9.60;;;6.53;;
16928;SDS011;8581;47.334;11.190;2024-03-08T05:35:53;11.20;;;6.87;;
16928;SDS011;8581;47.334;11.190;2024-03-08T05:38:25;10.47;;;6.20;;
16928;SDS011;8581;47.334;11.190;2024-03-08T05:40:57;9.73;;;6.60;;
16928;SDS011;8581;47.334;11.190;2024-03-08T05:43:30;8.73;;;5.87;;
16928;SDS011;8581;47.334;11.190;2024-03-08T05:46:02;7.33;;;5.93;;
16928;SDS011;8581;47.334;11.190;2024-03-08T05:48:34;9.97;;;5.87;;
16928;SDS011;8581;47.334;11.190;2024-03-08T05:51:07;10.17;;;6.73;;
16928;SDS011;8581;47.334;11.190;2024-03-08T05:53:39;8.73;;;6.87;;
16928;SDS011;8581;47.334;11.190;2024-03-08T05:56:11;8.83;;;6.20;;
16928;SDS011;8581;47.334;11.190;2024-03-08T05:58:43;8.80;;;7.00;;
16928;SDS011;8581;47.334;11.190;2024-03-08T06:01:17;9.93;;;7.03;;
16928;SDS011;8581;47.334;11.190;2024-03-08T06:03:49;14.20;;;9.43;;
16928;SDS011;8581;47.334;11.190;2024-03-08T06:06:22;14.40;;;9.13;;
16928;SDS011;8581;47.334;11.190;2024-03-08T06:08:54;13.80;;;7.43;;
16928;SDS011;8581;47.334;11.190;2024-03-08T06:11:28;12.57;;;6.47;;
16928;SDS011;8581;47.334;11.190;2024-03-08T06:14:00;8.07;;;5.87;;
16928;SDS011;8581;47.334;11.190;2024-03-08T06:16:32;20.87;;;14.93;;
16928;SDS011;8581;47.334;11.190;2024-03-08T06:19:04;21.80;;;10.77;;
16928;SDS011;8581;47.334;11.190;2024-03-08T06:21:36;14.57;;;9.77;;
16928;SDS011;8581;47.334;11.190;2024-03-08T06:24:08;15.73;;;9.00;;
16928;SDS011;8581;47.334;11.190;2024-03-08T06:26:40;14.13;;;8.90;;
16928;SDS011;8581;47.334;11.190;2024-03-08T06:29:12;14.23;;;10.53;;
16928;SDS011;8581;47.334;11.190;2024-03-08T06:31:44;13.87;;;9.50;;
16928;SDS011;8581;47.334;11.190;2024-03-08T06:34:16;14.47;;;7.77;;
16928;SDS011;8581;47.334;11.190;2024-03-08T06:36:49;37.43;;;30.33;;
16928;SDS011;8581;47.334;11.190;2024-03-08T06:39:21;19.23;;;11.90;;
16928;SDS011;8581;47.334;11.190;2024-03-08T06:41:53;14.23;;;10.30;;
16928;SDS011;8581;47.334;11.190;2024-03-08T06:44:25;19.83;;;10.60;;
16928;SDS011;8581;47.334;11.190;2024-03-08T06:46:57;13.83;;;9.40;;
16928;SDS011;8581;47.334;11.190;2024-03-08T06:52:21;17.93;;;10.40;;
16928;SDS011;8581;47.334;11.190;2024-03-08T06:54:53;15.87;;;11.43;;
16928;SDS011;8581;47.334;11.190;2024-03-08T07:08:48;16.43;;;10.80;;
16928;SDS011;8581;47.334;11.190;2024-03-08T07:11:20;14.33;;;10.20;;
16928;SDS011;8581;47.334;11.190;2024-03-08T07:13:52;10.67;;;8.87;;
16928;SDS011;8581;47.334;11.190;2024-03-08T07:16:24;14.97;;;9.00;;
16928;SDS011;8581;47.334;11.190;2024-03-08T07:18:56;15.60;;;9.00;;
16928;SDS011;8581;47.334;11.190;2024-03-08T07:21:28;12.23;;;9.77;;
16928;SDS011;8581;47.334;11.190;2024-03-08T07:57:54;3.83;;;3.10;;
16928;SDS011;8581;47.334;11.190;2024-03-08T08:00:25;4.40;;;3.00;;
16928;SDS011;8581;47.334;11.190;2024-03-08T08:02:58;3.90;;;3.10;;
16928;SDS011;8581;47.334;11.190;2024-03-08T08:05:29;2.90;;;2.60;;
16928;SDS011;8581;47.334;11.190;2024-03-08T08:08:02;3.67;;;2.80;;
16928;SDS011;8581;47.334;11.190;2024-03-08T08:10:38;4.73;;;2.90;;
16928;SDS011;8581;47.334;11.190;2024-03-08T08:13:10;2.67;;;2.30;;
16928;SDS011;8581;47.334;11.190;2024-03-08T08:15:42;2.47;;;2.13;;
16928;SDS011;8581;47.334;11.190;2024-03-08T08:18:14;2.57;;;2.20;;
16928;SDS011;8581;47.334;11.190;2024-03-08T08:20:46;2.30;;;2.10;;
16928;SDS011;8581;47.334;11.190;2024-03-08T08:23:18;3.53;;;2.97;;
16928;SDS011;8581;47.334;11.190;2024-03-08T08:25:50;5.50;;;3.40;;
16928;SDS011;8581;47.334;11.190;2024-03-08T08:28:22;3.17;;;2.83;;
16928;SDS011;8581;47.334;11.190;2024-03-08T08:30:54;2.70;;;2.23;;
16928;SDS011;8581;47.334;11.190;2024-03-08T08:33:26;2.90;;;2.33;;
16928;SDS011;8581;47.334;11.190;2024-03-08T08:35:58;3.60;;;2.90;;
16928;SDS011;8581;47.334;11.190;2024-03-08T08:38:31;5.40;;;2.30;;
16928;SDS011;8581;47.334;11.190;2024-03-08T08:41:03;5.87;;;3.07;;
16928;SDS011;8581;47.334;11.190;2024-03-08T08:43:35;4.30;;;2.40;;
16928;SDS011;8581;47.334;11.190;2024-03-08T08:46:08;5.43;;;2.80;;
16928;SDS011;8581;47.334;11.190;2024-03-08T08:48:40;6.23;;;3.17;;
16928;SDS011;8581;47.334;11.190;2024-03-08T08:51:13;7.03;;;3.00;;
16928;SDS011;8581;47.334;11.190;2024-03-08T08:53:45;6.13;;;3.07;;
16928;SDS011;8581;47.334;11.190;2024-03-08T08:56:17;4.53;;;2.90;;
16928;SDS011;8581;47.334;11.190;2024-03-08T08:58:49;4.30;;;3.00;;
16928;SDS011;8581;47.334;11.190;2024-03-08T09:01:21;3.27;;;2.93;;
16928;SDS011;8581;47.334;11.190;2024-03-08T09:03:53;4.67;;;3.70;;
16928;SDS011;8581;47.334;11.190;2024-03-08T09:06:25;3.67;;;3.20;;
16928;SDS011;8581;47.334;11.190;2024-03-08T09:08:57;3.70;;;3.10;;
16928;SDS011;8581;47.334;11.190;2024-03-08T09:11:29;4.70;;;2.47;;
16928;SDS011;8581;47.334;11.190;2024-03-08T09:14:01;4.57;;;2.50;;
16928;SDS011;8581;47.334;11.190;2024-03-08T09:16:33;6.37;;;2.63;;
16928;SDS011;8581;47.334;11.190;2024-03-08T09:19:05;2.30;;;2.00;;
16928;SDS011;8581;47.334;11.190;2024-03-08T09:21:37;4.83;;;2.10;;
16928;SDS011;8581;47.334;11.190;2024-03-08T09:24:09;2.70;;;2.27;;
16928;SDS011;8581;47.334;11.190;2024-03-08T09:26:41;3.83;;;2.20;;
16928;SDS011;8581;47.334;11.190;2024-03-08T09:29:13;3.20;;;2.30;;
16928;SDS011;8581;47.334;11.190;2024-03-08T09:31:45;4.87;;;2.23;;
16928;SDS011;8581;47.334;11.190;2024-03-08T09:34:17;3.20;;;1.97;;
16928;SDS011;8581;47.334;11.190;2024-03-08T09:36:49;4.50;;;2.67;;
16928;SDS011;8581;47.334;11.190;2024-03-08T09:39:21;3.90;;;2.47;;
16928;SDS011;8581;47.334;11.190;2024-03-08T09:41:53;5.13;;;2.77;;
16928;SDS011;8581;47.334;11.190;2024-03-08T09:44:26;5.33;;;2.40;;
16928;SDS011;8581;47.334;11.190;2024-03-08T09:46:58;3.40;;;2.10;;
16928;SDS011;8581;47.334;11.190;2024-03-08T09:49:30;2.80;;;2.07;;
16928;SDS011;8581;47.334;11.190;2024-03-08T09:52:02;2.83;;;2.13;;
16928;SDS011;8581;47.334;11.190;2024-03-08T09:54:35;3.90;;;2.00;;
16928;SDS011;8581;47.334;11.190;2024-03-08T09:57:07;2.97;;;1.40;;
16928;SDS011;8581;47.334;11.190;2024-03-08T09:59:39;2.07;;;1.77;;
16928;SDS011;8581;47.334;11.190;2024-03-08T10:02:12;4.13;;;2.27;;
16928;SDS011;8581;47.334;11.190;2024-03-08T10:04:44;2.83;;;1.83;;
16928;SDS011;8581;47.334;11.190;2024-03-08T10:07:16;2.83;;;1.70;;
16928;SDS011;8581;47.334;11.190;2024-03-08T10:09:51;3.03;;;1.90;;
16928;SDS011;8581;47.334;11.190;2024-03-08T10:12:21;2.00;;;1.50;;
16928;SDS011;8581;47.334;11.190;2024-03-08T10:14:54;4.00;;;1.60;;
16928;SDS011;8581;47.334;11.190;2024-03-08T10:17:25;2.20;;;1.50;;
16928;SDS011;8581;47.334;11.190;2024-03-08T10:19:57;3.33;;;1.53;;
16928;SDS011;8581;47.334;11.190;2024-03-08T10:22:29;2.40;;;1.03;;
16928;SDS011;8581;47.334;11.190;2024-03-08T10:25:01;2.03;;;1.80;;
16928;SDS011;8581;47.334;11.190;2024-03-08T10:27:34;3.87;;;1.40;;
16928;SDS011;8581;47.334;11.190;2024-03-08T10:30:06;5.43;;;1.73;;
16928;SDS011;8581;47.334;11.190;2024-03-08T10:32:41;1.80;;;1.40;;
16928;SDS011;8581;47.334;11.190;2024-03-08T10:35:14;3.43;;;1.50;;
16928;SDS011;8581;47.334;11.190;2024-03-08T10:37:47;2.63;;;1.50;;
16928;SDS011;8581;47.334;11.190;2024-03-08T10:40:19;3.67;;;1.30;;
16928;SDS011;8581;47.334;11.190;2024-03-08T10:42:52;5.28;;;1.75;;
16928;SDS011;8581;47.334;11.190;2024-03-08T10:45:30;2.57;;;1.20;;
16928;SDS011;8581;47.334;11.190;2024-03-08T10:48:08;2.58;;;1.20;;
16928;SDS011;8581;47.334;11.190;2024-03-08T10:50:46;3.10;;;1.32;;
16928;SDS011;8581;47.334;11.190;2024-03-08T10:53:18;2.22;;;1.20;;
16928;SDS011;8581;47.334;11.190;2024-03-08T10:55:53;2.47;;;1.52;;
16928;SDS011;8581;47.334;11.190;2024-03-08T10:58:25;1.60;;;1.50;;
16928;SDS011;8581;47.334;11.190;2024-03-08T11:00:57;3.10;;;1.27;;
16928;SDS011;8581;47.334;11.190;2024-03-08T11:06:22;1.52;;;1.42;;
16928;SDS011;8581;47.334;11.190;2024-03-08T11:08:54;2.12;;;1.55;;
16928;SDS011;8581;47.334;11.190;2024-03-08T11:11:27;2.58;;;1.37;;
16928;SDS011;8581;47.334;11.190;2024-03-08T11:13:59;2.20;;;1.47;;
16928;SDS011;8581;47.334;11.190;2024-03-08T11:16:38;2.22;;;1.20;;
16928;SDS011;8581;47.334;11.190;2024-03-08T11:21:58;5.42;;;1.50;;
16928;SDS011;8581;47.334;11.190;2024-03-08T11:27:09;5.53;;;1.80;;
16928;SDS011;8581;47.334;11.190;2024-03-08T11:29:40;2.37;;;1.40;;
16928;SDS011;8581;47.334;11.190;2024-03-08T11:32:14;2.08;;;1.50;;
16928;SDS011;8581;47.334;11.190;2024-03-08T11:34:47;3.27;;;1.50;;
16928;SDS011;8581;47.334;11.190;2024-03-08T11:37:20;5.60;;;1.80;;
16928;SDS011;8581;47.334;11.190;2024-03-08T11:39:53;1.27;;;1.17;;
16928;SDS011;8581;47.334;11.190;2024-03-08T11:42:25;2.02;;;1.40;;
16928;SDS011;8581;47.334;11.190;2024-03-08T11:45:07;2.15;;;1.95;;
16928;SDS011;8581;47.334;11.190;2024-03-08T11:47:36;1.65;;;1.30;;
16928;SDS011;8581;47.334;11.190;2024-03-08T11:50:10;1.62;;;1.40;;
16928;SDS011;8581;47.334;11.190;2024-03-08T11:52:41;1.60;;;1.50;;
16928;SDS011;8581;47.334;11.190;2024-03-08T11:55:13;2.50;;;1.50;;
16928;SDS011;8581;47.334;11.190;2024-03-08T11:57:45;2.52;;;1.40;;
16928;SDS011;8581;47.334;11.190;2024-03-08T12:00:18;2.83;;;1.42;;
16928;SDS011;8581;47.334;11.190;2024-03-08T12:05:33;2.27;;;1.60;;
16928;SDS011;8581;47.334;11.190;2024-03-08T12:08:05;3.40;;;1.42;;
16928;SDS011;8581;47.334;11.190;2024-03-08T12:10:38;2.58;;;1.50;;
16928;SDS011;8581;47.334;11.190;2024-03-08T12:13:10;1.50;;;1.40;;
16928;SDS011;8581;47.334;11.190;2024-03-08T12:15:42;2.60;;;1.50;;
16928;SDS011;8581;47.334;11.190;2024-03-08T12:18:14;2.47;;;1.98;;
16928;SDS011;8581;47.334;11.190;2024-03-08T12:20:47;2.02;;;1.30;;
16928;SDS011;8581;47.334;11.190;2024-03-08T12:23:19;1.70;;;1.30;;
16928;SDS011;8581;47.334;11.190;2024-03-08T12:25:51;3.33;;;1.45;;
16928;SDS011;8581;47.334;11.190;2024-03-08T12:28:23;3.05;;;1.30;;
16928;SDS011;8581;47.334;11.190;2024-03-08T12:30:55;2.87;;;1.30;;
16928;SDS011;8581;47.334;11.190;2024-03-08T12:33:26;4.85;;;1.62;;
16928;SDS011;8581;47.334;11.190;2024-03-08T12:36:00;2.25;;;1.30;;
16928;SDS011;8581;47.334;11.190;2024-03-08T12:38:32;1.50;;;1.07;;
16928;SDS011;8581;47.334;11.190;2024-03-08T12:41:04;3.10;;;1.30;;
16928;SDS011;8581;47.334;11.190;2024-03-08T12:43:37;2.65;;;1.12;;
16928;SDS011;8581;47.334;11.190;2024-03-08T12:46:09;1.37;;;1.27;;
16928;SDS011;8581;47.334;11.190;2024-03-08T12:48:42;1.60;;;1.10;;
16928;SDS011;8581;47.334;11.190;2024-03-08T12:51:14;2.10;;;1.20;;
16928;SDS011;8581;47.334;11.190;2024-03-08T12:53:46;1.00;;;1.00;;
16928;SDS011;8581;47.334;11.190;2024-03-08T12:56:28;4.80;;;1.50;;
16928;SDS011;8581;47.334;11.190;2024-03-08T12:58:51;1.57;;;1.15;;
16928;SDS011;8581;47.334;11.190;2024-03-08T13:01:24;1.45;;;1.10;;
16928;SDS011;8581;47.334;11.190;2024-03-08T13:03:56;1.42;;;1.20;;
16928;SDS011;8581;47.334;11.190;2024-03-08T13:06:28;1.57;;;1.37;;
16928;SDS011;8581;47.334;11.190;2024-03-08T13:09:00;2.75;;;1.27;;
16928;SDS011;8581;47.334;11.190;2024-03-08T13:11:32;2.50;;;1.20;;
16928;SDS011;8581;47.334;11.190;2024-03-08T13:14:06;1.35;;;1.00;;
16928;SDS011;8581;47.334;11.190;2024-03-08T13:16:38;1.10;;;1.00;;
16928;SDS011;8581;47.334;11.190;2024-03-08T13:19:10;1.10;;;1.00;;
16928;SDS011;8581;47.334;11.190;2024-03-08T13:21:42;2.22;;;1.20;;
16928;SDS011;8581;47.334;11.190;2024-03-08T13:24:14;2.35;;;1.05;;
16928;SDS011;8581;47.334;11.190;2024-03-08T13:26:47;2.10;;;1.20;;
16928;SDS011;8581;47.334;11.190;2024-03-08T13:29:18;0.72;;;0.72;;
16928;SDS011;8581;47.334;11.190;2024-03-08T13:31:51;1.20;;;1.10;;
16928;SDS011;8581;47.334;11.190;2024-03-08T13:34:23;2.15;;;1.30;;
16928;SDS011;8581;47.334;11.190;2024-03-08T13:36:55;2.92;;;1.40;;
16928;SDS011;8581;47.334;11.190;2024-03-08T13:39:27;2.37;;;1.20;;
16928;SDS011;8581;47.334;11.190;2024-03-08T13:42:00;2.17;;;1.37;;
16928;SDS011;8581;47.334;11.190;2024-03-08T13:44:31;1.50;;;1.40;;
16928;SDS011;8581;47.334;11.190;2024-03-08T13:47:03;2.40;;;1.90;;
16928;SDS011;8581;47.334;11.190;2024-03-08T13:49:36;1.62;;;1.30;;
16928;SDS011;8581;47.334;11.190;2024-03-08T13:52:07;0.80;;;0.80;;
16928;SDS011;8581;47.334;11.190;2024-03-08T13:54:40;5.00;;;1.20;;
16928;SDS011;8581;47.334;11.190;2024-03-08T13:57:11;1.50;;;0.98;;
16928;SDS011;8581;47.334;11.190;2024-03-08T13:59:43;3.52;;;0.90;;
16928;SDS011;8581;47.334;11.190;2024-03-08T14:02:15;2.95;;;1.00;;
16928;SDS011;8581;47.334;11.190;2024-03-08T14:04:48;2.35;;;0.90;;
16928;SDS011;8581;47.334;11.190;2024-03-08T14:07:20;1.42;;;0.90;;
16928;SDS011;8581;47.334;11.190;2024-03-08T14:09:52;0.90;;;0.90;;
16928;SDS011;8581;47.334;11.190;2024-03-08T14:12:24;1.45;;;0.90;;
16928;SDS011;8581;47.334;11.190;2024-03-08T14:14:56;1.35;;;0.90;;
16928;SDS011;8581;47.334;11.190;2024-03-08T14:17:29;0.62;;;0.62;;
16928;SDS011;8581;47.334;11.190;2024-03-08T14:20:01;1.45;;;0.80;;
16928;SDS011;8581;47.334;11.190;2024-03-08T14:22:33;3.47;;;0.80;;
16928;SDS011;8581;47.334;11.190;2024-03-08T14:25:06;0.60;;;0.60;;
16928;SDS011;8581;47.334;11.190;2024-03-08T14:27:39;0.65;;;0.65;;
16928;SDS011;8581;47.334;11.190;2024-03-08T14:30:12;1.27;;;0.90;;
16928;SDS011;8581;47.334;11.190;2024-03-08T14:32:44;0.75;;;0.75;;
16928;SDS011;8581;47.334;11.190;2024-03-08T14:35:16;0.57;;;0.57;;
16928;SDS011;8581;47.334;11.190;2024-03-08T14:37:48;1.20;;;0.70;;
16928;SDS011;8581;47.334;11.190;2024-03-08T14:40:20;2.67;;;0.85;;
16928;SDS011;8581;47.334;11.190;2024-03-08T14:42:52;2.00;;;0.70;;
16928;SDS011;8581;47.334;11.190;2024-03-08T14:45:24;1.05;;;0.72;;
16928;SDS011;8581;47.334;11.190;2024-03-08T14:47:57;1.85;;;1.00;;
16928;SDS011;8581;47.334;11.190;2024-03-08T14:50:29;2.15;;;0.80;;
16928;SDS011;8581;47.334;11.190;2024-03-08T14:53:01;2.77;;;0.75;;
16928;SDS011;8581;47.334;11.190;2024-03-08T14:55:33;1.05;;;0.85;;
16928;SDS011;8581;47.334;11.190;2024-03-08T14:58:05;0.68;;;0.60;;
16928;SDS011;8581;47.334;11.190;2024-03-08T15:00:37;0.95;;;0.75;;
16928;SDS011;8581;47.334;11.190;2024-03-08T15:03:10;1.25;;;0.75;;
16928;SDS011;8581;47.334;11.190;2024-03-08T15:05:42;0.80;;;0.75;;
16928;SDS011;8581;47.334;11.190;2024-03-08T15:08:14;2.15;;;0.80;;
16928;SDS011;8581;47.334;11.190;2024-03-08T15:10:54;1.87;;;0.70;;
16928;SDS011;8581;47.334;11.190;2024-03-08T15:13:26;1.42;;;0.80;;
16928;SDS011;8581;47.334;11.190;2024-03-08T15:15:59;0.70;;;0.70;;
16928;SDS011;8581;47.334;11.190;2024-03-08T15:18:31;0.98;;;0.90;;
16928;SDS011;8581;47.334;11.190;2024-03-08T15:21:05;0.78;;;0.70;;
16928;SDS011;8581;47.334;11.190;2024-03-08T15:23:37;1.25;;;0.90;;
16928;SDS011;8581;47.334;11.190;2024-03-08T15:26:10;1.00;;;0.90;;
16928;SDS011;8581;47.334;11.190;2024-03-08T15:28:41;1.10;;;0.90;;
16928;SDS011;8581;47.334;11.190;2024-03-08T15:31:13;0.93;;;0.90;;
16928;SDS011;8581;47.334;11.190;2024-03-08T15:33:45;1.52;;;0.90;;
16928;SDS011;8581;47.334;11.190;2024-03-08T15:36:17;1.75;;;0.80;;
16928;SDS011;8581;47.334;11.190;2024-03-08T15:38:49;1.90;;;0.95;;
16928;SDS011;8581;47.334;11.190;2024-03-08T15:41:21;0.98;;;0.72;;
16928;SDS011;8581;47.334;11.190;2024-03-08T15:43:53;0.68;;;0.60;;
16928;SDS011;8581;47.334;11.190;2024-03-08T15:46:30;0.90;;;0.80;;
16928;SDS011;8581;47.334;11.190;2024-03-08T15:49:03;1.75;;;0.80;;
16928;SDS011;8581;47.334;11.190;2024-03-08T15:51:35;0.93;;;0.93;;
16928;SDS011;8581;47.334;11.190;2024-03-08T15:54:07;2.47;;;0.90;;
16928;SDS011;8581;47.334;11.190;2024-03-08T15:56:38;2.65;;;1.30;;
16928;SDS011;8581;47.334;11.190;2024-03-08T15:59:11;1.37;;;1.00;;
16928;SDS011;8581;47.334;11.190;2024-03-08T16:01:43;0.93;;;0.80;;
16928;SDS011;8581;47.334;11.190;2024-03-08T16:04:17;2.37;;;0.80;;
16928;SDS011;8581;47.334;11.190;2024-03-08T16:06:49;0.70;;;0.70;;